»·PEaware :: AAL243 KMIA-TNCM

AAL243 :: KMIA-TNCM

FLIGHT INFORMATION

Flight Status: Arrived
Operator:
American Airlines
More flights by this operator :: More flights under this callsign
Pilot: Cullen C. (7783)
Aircraft: AIRBUS A320
(A320)
More flights by this aircraft type
Origin: KMIA Miami Intl
United States
Destination: TNCM Princess Juliana Intl
Netherlands Antilles
More flights between these airports :: More routes between these airports
Route: SKIPS2 SKIPS BR53V ZQA A555 DDP B520 STT GOUDA ULUBA1
File this flight plan on PilotEdge
Remarks: PBN / A1B1C1D1O1S1 DOF / 180321 REG / N320SB EET / TJZS0134 OPR / AAL PER / C RMK / TCAS SIMBRIEF
Altitude:
(Current/Filed)
37,000ft
Speed:
(Current/Filed)
449kts
Departed: 21-Apr-18 07:22 PM
Arrived: 21-Apr-18 09:49 PM
Distance/Time
Traveled:
1062nm/2:27
Distance/Time
To Go:
Arrived

Flight Plot

Page will automatically refresh every two minutes.

Flight plan parsing failed; only flown route is shown


Map Options




Map Legend


Flown Route
Filed Route
Departure Airport
Arrival Airport
Navaid (VOR, NDB)
Fix

Horizontal Profiles

Position Reports

Time Latitude Longitude Heading Altitude Ground
Speed
21-Apr-18 18:57 25.797878 -80.275296 174 15ft 0kts
21-Apr-18 18:58 25.797878 -80.275296 174 15ft 0kts
21-Apr-18 18:59 25.797878 -80.275296 174 15ft 0kts
21-Apr-18 19:00 25.797878 -80.275296 174 15ft 0kts
21-Apr-18 19:01 25.797878 -80.275296 174 15ft 0kts
21-Apr-18 19:02 25.797878 -80.275296 174 15ft 0kts
21-Apr-18 19:03 25.797878 -80.275296 174 15ft 0kts
21-Apr-18 19:04 25.797878 -80.275296 174 15ft 0kts
21-Apr-18 19:05 25.797878 -80.275296 174 15ft 0kts
21-Apr-18 19:06 25.797878 -80.275296 174 15ft 0kts
21-Apr-18 19:07 25.797878 -80.275296 174 15ft 0kts
21-Apr-18 19:08 25.797878 -80.275296 174 15ft 0kts
21-Apr-18 19:09 25.797878 -80.275296 174 15ft 0kts
21-Apr-18 19:10 25.797878 -80.275296 174 15ft 0kts
21-Apr-18 19:11 25.798039 -80.275304 178 15ft 2kts
21-Apr-18 19:12 25.798635 -80.275333 177 15ft 2kts
21-Apr-18 19:13 25.799231 -80.275362 177 15ft 2kts
21-Apr-18 19:14 25.799488 -80.275375 177 15ft 0kts
21-Apr-18 19:15 25.799488 -80.275375 177 15ft 0kts
21-Apr-18 19:16 25.799491 -80.276680 314 15ft 19kts
21-Apr-18 19:17 25.799511 -80.284331 268 15ft 29kts
21-Apr-18 19:18 25.799118 -80.293377 267 15ft 29kts
21-Apr-18 19:19 25.799619 -80.299069 293 15ft 18kts
21-Apr-18 19:20 25.799872 -80.299984 284 15ft 1kts
21-Apr-18 19:21 25.801198 -80.289521 86 16ft 138kts
21-Apr-18 19:22 25.791012 -80.243466 113 2468ft 173kts
21-Apr-18 19:23 25.765062 -80.184144 114 4168ft 254kts
21-Apr-18 19:24 25.739692 -80.109486 105 6949ft 276kts
21-Apr-18 19:25 25.716871 -80.026495 106 9819ft 290kts
21-Apr-18 19:26 25.696504 -79.934440 103 11514ft 339kts
21-Apr-18 19:27 25.675438 -79.828694 104 13628ft 361kts
21-Apr-18 19:28 25.653254 -79.717831 104 15612ft 378kts
21-Apr-18 19:29 25.628022 -79.602898 105 17375ft 394kts
21-Apr-18 19:30 25.600974 -79.482788 104 19050ft 409kts
21-Apr-18 19:31 25.573248 -79.359659 104 20614ft 421kts
21-Apr-18 19:32 25.544796 -79.234423 104 22015ft 432kts
21-Apr-18 19:33 25.514849 -79.103867 104 23341ft 442kts
21-Apr-18 19:34 25.484203 -78.970656 104 24564ft 452kts
21-Apr-18 19:35 25.452906 -78.835147 104 25706ft 461kts
21-Apr-18 19:36 25.420923 -78.697271 104 26762ft 469kts
21-Apr-18 19:37 25.387984 -78.556268 104 27752ft 477kts
21-Apr-18 19:38 25.354799 -78.414864 104 28659ft 485kts
21-Apr-18 19:39 25.321982 -78.275650 105 29444ft 492kts
21-Apr-18 19:40 25.281985 -78.134989 113 30174ft 497kts
21-Apr-18 19:41 25.229924 -77.994330 113 30849ft 503kts
21-Apr-18 19:42 25.177433 -77.852179 112 31744ft 502kts
21-Apr-18 19:43 25.124495 -77.710038 112 32590ft 501kts
21-Apr-18 19:44 25.071556 -77.568423 113 33363ft 500kts
21-Apr-18 19:45 25.014282 -77.429216 127 34055ft 497kts
21-Apr-18 19:46 24.935096 -77.307138 128 34816ft 493kts
21-Apr-18 19:47 24.855950 -77.185352 128 35409ft 493kts
21-Apr-18 19:48 24.776226 -77.062986 128 35964ft 492kts
21-Apr-18 19:49 24.696648 -76.941083 128 36486ft 492kts
21-Apr-18 19:50 24.616814 -76.819173 127 36922ft 492kts
21-Apr-18 19:51 24.536904 -76.697417 127 37248ft 492kts
21-Apr-18 19:52 24.457017 -76.576054 127 37251ft 492kts
21-Apr-18 19:53 24.377095 -76.454938 127 37254ft 493kts
21-Apr-18 19:54 24.297317 -76.334343 128 37257ft 493kts
21-Apr-18 19:55 24.216748 -76.212858 128 37253ft 493kts
21-Apr-18 19:56 24.136569 -76.092251 128 37248ft 492kts
21-Apr-18 19:57 24.056135 -75.971554 128 37249ft 493kts
21-Apr-18 19:58 23.975373 -75.850668 128 37252ft 493kts
21-Apr-18 19:59 23.895141 -75.730867 128 37255ft 493kts
21-Apr-18 20:00 23.814084 -75.610125 128 37252ft 493kts
21-Apr-18 20:01 23.733187 -75.489911 128 37252ft 493kts
21-Apr-18 20:02 23.652028 -75.369597 128 37252ft 493kts
21-Apr-18 20:03 23.573111 -75.248787 121 37249ft 494kts
21-Apr-18 20:04 23.507352 -75.117563 120 37247ft 494kts
21-Apr-18 20:05 23.441417 -74.986186 120 37248ft 494kts
21-Apr-18 20:06 23.375585 -74.855354 120 37253ft 495kts
21-Apr-18 20:07 23.309467 -74.724294 120 37255ft 495kts
21-Apr-18 20:08 23.243424 -74.593436 119 37257ft 495kts
21-Apr-18 20:09 23.176810 -74.462296 120 37257ft 495kts
21-Apr-18 20:10 23.110297 -74.332220 121 37255ft 495kts
21-Apr-18 20:11 23.043166 -74.202091 121 37245ft 494kts
21-Apr-18 20:12 22.976256 -74.072739 123 37119ft 493kts
21-Apr-18 20:13 22.909203 -73.943365 123 37110ft 492kts
21-Apr-18 20:14 22.843294 -73.816560 123 37106ft 492kts
21-Apr-18 20:15 22.776162 -73.687740 123 37108ft 492kts
21-Apr-18 20:16 22.708822 -73.558812 123 37113ft 493kts
21-Apr-18 20:17 22.641378 -73.430010 123 37123ft 493kts
21-Apr-18 20:18 22.574037 -73.301746 125 37123ft 492kts
21-Apr-18 20:19 22.506345 -73.173099 124 37106ft 492kts
21-Apr-18 20:20 22.438838 -73.045190 124 37105ft 491kts
21-Apr-18 20:21 22.371143 -72.917208 124 37109ft 492kts
21-Apr-18 20:22 22.303192 -72.789062 124 37118ft 493kts
21-Apr-18 20:23 22.235444 -72.660905 121 37126ft 495kts
21-Apr-18 20:24 22.172206 -72.529562 121 37125ft 495kts
21-Apr-18 20:25 22.107466 -72.399085 123 37124ft 494kts
21-Apr-18 20:26 22.040141 -72.270427 124 37114ft 493kts
21-Apr-18 20:27 21.973306 -72.142100 124 37102ft 492kts
21-Apr-18 20:28 21.906090 -72.013937 125 37105ft 492kts
21-Apr-18 20:29 21.839287 -71.886852 124 37108ft 493kts
21-Apr-18 20:30 21.771859 -71.758889 124 37120ft 493kts
21-Apr-18 20:31 21.704190 -71.630764 124 37127ft 494kts
21-Apr-18 20:32 21.636257 -71.502367 124 37125ft 494kts
21-Apr-18 20:33 21.568437 -71.374492 124 37119ft 494kts
21-Apr-18 20:34 21.500667 -71.246999 124 37109ft 492kts
21-Apr-18 20:35 21.432090 -71.120075 128 37100ft 489kts
21-Apr-18 20:36 21.358369 -70.998106 128 37103ft 490kts
21-Apr-18 20:37 21.284216 -70.875593 128 37111ft 490kts
21-Apr-18 20:38 21.210244 -70.753666 128 37114ft 491kts
21-Apr-18 20:39 21.136005 -70.631559 128 37194ft 492kts
21-Apr-18 20:40 21.061158 -70.508941 128 37206ft 493kts
21-Apr-18 20:41 20.986186 -70.386367 128 37207ft 493kts
21-Apr-18 20:42 20.911219 -70.264193 128 37198ft 492kts
21-Apr-18 20:43 20.840367 -70.148596 128 37190ft 491kts
21-Apr-18 20:44 20.765704 -70.027230 128 37187ft 491kts
21-Apr-18 20:45 20.690585 -69.905363 128 37189ft 491kts
21-Apr-18 20:46 20.615457 -69.783741 128 37194ft 492kts
21-Apr-18 20:47 20.552697 -69.682573 128 37199ft 492kts
21-Apr-18 20:48 20.477261 -69.561897 129 37200ft 492kts
21-Apr-18 20:49 20.401180 -69.441007 129 37201ft 492kts
21-Apr-18 20:50 20.325410 -69.320729 129 37142ft 491kts
21-Apr-18 20:51 20.249545 -69.200552 129 37130ft 490kts
21-Apr-18 20:52 20.173715 -69.080675 129 37118ft 490kts
21-Apr-18 20:53 20.085295 -68.941204 129 37133ft 490kts
21-Apr-18 20:54 20.009140 -68.821342 129 37145ft 491kts
21-Apr-18 20:55 19.933270 -68.700583 128 37149ft 492kts
21-Apr-18 20:56 19.873181 -68.605006 128 37148ft 492kts
21-Apr-18 20:57 19.797425 -68.484556 128 37153ft 493kts
21-Apr-18 20:58 19.721315 -68.364191 128 37211ft 492kts
21-Apr-18 20:59 19.646645 -68.246247 129 37189ft 492kts
21-Apr-18 21:00 19.570526 -68.126207 129 37182ft 491kts
21-Apr-18 21:01 19.494650 -68.006709 129 37182ft 491kts
21-Apr-18 21:02 19.418230 -67.886600 129 37191ft 492kts
21-Apr-18 21:03 19.341939 -67.766964 128 37195ft 492kts
21-Apr-18 21:04 19.265523 -67.647365 128 37201ft 493kts
21-Apr-18 21:05 19.188743 -67.527362 128 37202ft 493kts
21-Apr-18 21:06 19.111965 -67.407588 128 37198ft 493kts
21-Apr-18 21:07 19.035856 -67.289086 129 37192ft 492kts
21-Apr-18 21:08 18.959137 -67.169869 129 37178ft 491kts
21-Apr-18 21:09 18.883293 -67.052230 129 37182ft 491kts
21-Apr-18 21:10 18.806341 -66.933100 129 37194ft 492kts
21-Apr-18 21:11 18.729668 -66.814625 129 37198ft 492kts
21-Apr-18 21:12 18.652545 -66.695678 129 37200ft 492kts
21-Apr-18 21:13 18.575814 -66.577559 129 37178ft 493kts
21-Apr-18 21:14 18.498848 -66.458886 126 37170ft 494kts
21-Apr-18 21:15 18.470351 -66.324227 89 37177ft 513kts
21-Apr-18 21:16 18.473871 -66.177498 89 37164ft 510kts
21-Apr-18 21:17 18.477197 -66.029110 89 37141ft 509kts
21-Apr-18 21:18 18.480432 -65.880798 89 37169ft 509kts
21-Apr-18 21:19 18.483558 -65.732316 89 37216ft 509kts
21-Apr-18 21:20 18.486571 -65.583733 89 37224ft 510kts
21-Apr-18 21:21 18.489476 -65.434644 89 37232ft 511kts
21-Apr-18 21:22 18.490702 -65.313062 97 37209ft 510kts
21-Apr-18 21:23 18.448809 -65.196813 124 37205ft 497kts
21-Apr-18 21:24 18.395072 -65.097460 124 37195ft 496kts
21-Apr-18 21:25 18.341584 -64.978125 111 37086ft 503kts
21-Apr-18 21:26 18.299077 -64.839584 110 34841ft 498kts
21-Apr-18 21:27 18.257063 -64.703272 110 32607ft 493kts
21-Apr-18 21:28 18.214849 -64.566543 110 30032ft 493kts
21-Apr-18 21:29 18.172431 -64.429557 109 27406ft 491kts
21-Apr-18 21:30 18.140669 -64.327331 109 25368ft 457kts
21-Apr-18 21:31 18.103577 -64.208284 109 23263ft 414kts
21-Apr-18 21:32 18.068263 -64.094883 108 21230ft 407kts
21-Apr-18 21:33 18.033376 -63.983226 108 19196ft 399kts
21-Apr-18 21:34 17.999089 -63.873757 109 17131ft 392kts
21-Apr-18 21:35 17.965576 -63.766994 110 15114ft 380kts
21-Apr-18 21:36 17.937213 -63.664037 89 13323ft 363kts
21-Apr-18 21:37 17.963020 -63.564555 74 11507ft 348kts
21-Apr-18 21:38 17.988369 -63.474693 73 10133ft 305kts
21-Apr-18 21:39 18.000596 -63.395196 79 8899ft 275kts
21-Apr-18 21:40 18.010822 -63.319935 81 6796ft 262kts
21-Apr-18 21:41 18.018525 -63.252229 102 4847ft 238kts
21-Apr-18 21:42 17.971434 -63.237870 233 3409ft 216kts
21-Apr-18 21:43 17.989262 -63.267868 46 2556ft 146kts
21-Apr-18 21:44 18.012223 -63.234699 59 2104ft 140kts
21-Apr-18 21:45 18.026879 -63.198628 79 1552ft 139kts
21-Apr-18 21:46 18.033375 -63.161422 81 911ft 137kts
21-Apr-18 21:47 18.038663 -63.124744 81 185ft 136kts
21-Apr-18 21:48 18.041368 -63.105458 91 18ft 22kts
21-Apr-18 21:49 18.041013 -63.108292 261 18ft 30kts
21-Apr-18 21:50 18.041467 -63.111701 261 19ft 23kts
21-Apr-18 21:51 18.043229 -63.113542 351 16ft 0kts

Navigation Log

Ident Type
Flight plan parsing failed, navigation log unavailable